sensor_id;sensor_type;location;lat;lon;timestamp;P1;durP1;ratioP1;P2;durP2;ratioP2
249;SDS011;109;19.806;-70.704;2022-10-16T00:01:25;40.07;;;9.10;;
249;SDS011;109;19.806;-70.704;2022-10-16T00:04:00;40.00;;;9.70;;
249;SDS011;109;19.806;-70.704;2022-10-16T00:06:29;35.63;;;8.27;;
249;SDS011;109;19.806;-70.704;2022-10-16T00:09:02;37.43;;;10.13;;
249;SDS011;109;19.806;-70.704;2022-10-16T00:11:30;43.27;;;9.00;;
249;SDS011;109;19.806;-70.704;2022-10-16T00:14:10;37.37;;;8.67;;
249;SDS011;109;19.806;-70.704;2022-10-16T00:16:45;47.57;;;10.13;;
249;SDS011;109;19.806;-70.704;2022-10-16T00:19:12;49.17;;;9.23;;
249;SDS011;109;19.806;-70.704;2022-10-16T00:21:44;33.57;;;10.00;;
249;SDS011;109;19.806;-70.704;2022-10-16T00:24:11;34.80;;;8.87;;
249;SDS011;109;19.806;-70.704;2022-10-16T00:26:44;60.60;;;11.03;;
249;SDS011;109;19.806;-70.704;2022-10-16T00:29:25;38.63;;;10.67;;
249;SDS011;109;19.806;-70.704;2022-10-16T00:31:52;44.13;;;11.87;;
249;SDS011;109;19.806;-70.704;2022-10-16T00:34:31;42.97;;;11.10;;
249;SDS011;109;19.806;-70.704;2022-10-16T00:36:58;46.50;;;12.43;;
249;SDS011;109;19.806;-70.704;2022-10-16T00:39:37;44.97;;;12.37;;
249;SDS011;109;19.806;-70.704;2022-10-16T00:42:04;45.63;;;11.53;;
249;SDS011;109;19.806;-70.704;2022-10-16T00:44:49;57.07;;;11.77;;
249;SDS011;109;19.806;-70.704;2022-10-16T00:47:29;39.90;;;10.20;;
249;SDS011;109;19.806;-70.704;2022-10-16T00:52:58;41.00;;;9.40;;
249;SDS011;109;19.806;-70.704;2022-10-16T00:55:40;46.97;;;11.50;;
249;SDS011;109;19.806;-70.704;2022-10-16T00:58:07;37.23;;;11.00;;
249;SDS011;109;19.806;-70.704;2022-10-16T01:00:47;31.93;;;9.60;;
249;SDS011;109;19.806;-70.704;2022-10-16T01:03:27;32.73;;;9.70;;
249;SDS011;109;19.806;-70.704;2022-10-16T01:09:41;37.87;;;9.47;;
249;SDS011;109;19.806;-70.704;2022-10-16T01:12:37;50.80;;;10.90;;
249;SDS011;109;19.806;-70.704;2022-10-16T01:15:28;43.77;;;9.70;;
249;SDS011;109;19.806;-70.704;2022-10-16T01:20:50;40.70;;;10.03;;
249;SDS011;109;19.806;-70.704;2022-10-16T01:27:00;43.33;;;9.77;;
249;SDS011;109;19.806;-70.704;2022-10-16T01:32:47;46.07;;;9.57;;
249;SDS011;109;19.806;-70.704;2022-10-16T01:35:41;37.23;;;10.00;;
249;SDS011;109;19.806;-70.704;2022-10-16T01:44:01;37.67;;;8.30;;
249;SDS011;109;19.806;-70.704;2022-10-16T01:46:46;40.87;;;9.97;;
249;SDS011;109;19.806;-70.704;2022-10-16T01:49:32;44.87;;;10.57;;
249;SDS011;109;19.806;-70.704;2022-10-16T01:52:09;37.53;;;8.73;;
249;SDS011;109;19.806;-70.704;2022-10-16T01:54:53;38.10;;;9.53;;
249;SDS011;109;19.806;-70.704;2022-10-16T01:57:22;36.97;;;10.57;;
249;SDS011;109;19.806;-70.704;2022-10-16T02:00:07;33.17;;;8.30;;
249;SDS011;109;19.806;-70.704;2022-10-16T02:02:45;31.30;;;8.63;;
249;SDS011;109;19.806;-70.704;2022-10-16T02:06:01;33.10;;;7.87;;
249;SDS011;109;19.806;-70.704;2022-10-16T02:08:29;50.23;;;10.17;;
249;SDS011;109;19.806;-70.704;2022-10-16T02:11:10;48.37;;;9.37;;
249;SDS011;109;19.806;-70.704;2022-10-16T02:14:08;38.43;;;8.93;;
249;SDS011;109;19.806;-70.704;2022-10-16T02:16:46;33.80;;;9.43;;
249;SDS011;109;19.806;-70.704;2022-10-16T02:19:26;35.03;;;9.00;;
249;SDS011;109;19.806;-70.704;2022-10-16T02:21:57;37.43;;;8.87;;
249;SDS011;109;19.806;-70.704;2022-10-16T02:24:50;43.07;;;10.27;;
249;SDS011;109;19.806;-70.704;2022-10-16T02:27:49;37.50;;;8.60;;
249;SDS011;109;19.806;-70.704;2022-10-16T02:33:39;29.50;;;8.17;;
249;SDS011;109;19.806;-70.704;2022-10-16T02:36:21;36.20;;;8.87;;
249;SDS011;109;19.806;-70.704;2022-10-16T02:39:03;35.00;;;8.20;;
249;SDS011;109;19.806;-70.704;2022-10-16T02:41:31;32.37;;;8.90;;
249;SDS011;109;19.806;-70.704;2022-10-16T02:44:11;39.07;;;9.03;;
249;SDS011;109;19.806;-70.704;2022-10-16T02:46:38;42.27;;;11.30;;
249;SDS011;109;19.806;-70.704;2022-10-16T02:49:17;46.97;;;9.77;;
249;SDS011;109;19.806;-70.704;2022-10-16T02:51:44;33.67;;;7.77;;
249;SDS011;109;19.806;-70.704;2022-10-16T02:54:24;32.90;;;9.03;;
249;SDS011;109;19.806;-70.704;2022-10-16T02:56:51;32.70;;;8.17;;
249;SDS011;109;19.806;-70.704;2022-10-16T02:59:30;35.07;;;8.70;;
249;SDS011;109;19.806;-70.704;2022-10-16T03:01:57;28.27;;;8.20;;
249;SDS011;109;19.806;-70.704;2022-10-16T03:04:37;35.30;;;8.47;;
249;SDS011;109;19.806;-70.704;2022-10-16T03:07:03;32.10;;;10.27;;
249;SDS011;109;19.806;-70.704;2022-10-16T03:09:45;38.13;;;7.80;;
249;SDS011;109;19.806;-70.704;2022-10-16T03:12:11;37.30;;;7.87;;
249;SDS011;109;19.806;-70.704;2022-10-16T03:14:50;35.47;;;9.60;;
249;SDS011;109;19.806;-70.704;2022-10-16T03:17:17;33.33;;;8.77;;
249;SDS011;109;19.806;-70.704;2022-10-16T03:19:56;43.07;;;9.73;;
249;SDS011;109;19.806;-70.704;2022-10-16T03:22:23;38.50;;;8.60;;
249;SDS011;109;19.806;-70.704;2022-10-16T03:25:11;30.73;;;8.60;;
249;SDS011;109;19.806;-70.704;2022-10-16T03:27:50;31.33;;;8.27;;
249;SDS011;109;19.806;-70.704;2022-10-16T03:30:30;33.30;;;8.30;;
249;SDS011;109;19.806;-70.704;2022-10-16T03:32:57;38.13;;;8.10;;
249;SDS011;109;19.806;-70.704;2022-10-16T03:35:37;32.93;;;7.83;;
249;SDS011;109;19.806;-70.704;2022-10-16T03:38:03;35.57;;;8.20;;
249;SDS011;109;19.806;-70.704;2022-10-16T03:40:50;29.57;;;7.50;;
249;SDS011;109;19.806;-70.704;2022-10-16T03:43:23;37.90;;;8.60;;
249;SDS011;109;19.806;-70.704;2022-10-16T03:46:04;32.63;;;8.50;;
249;SDS011;109;19.806;-70.704;2022-10-16T03:48:43;31.83;;;7.10;;
249;SDS011;109;19.806;-70.704;2022-10-16T03:51:11;42.97;;;9.47;;
249;SDS011;109;19.806;-70.704;2022-10-16T03:53:50;37.23;;;8.47;;
249;SDS011;109;19.806;-70.704;2022-10-16T03:56:17;33.10;;;7.77;;
249;SDS011;109;19.806;-70.704;2022-10-16T03:58:57;23.80;;;7.13;;
249;SDS011;109;19.806;-70.704;2022-10-16T04:01:24;37.10;;;8.10;;
249;SDS011;109;19.806;-70.704;2022-10-16T04:04:03;29.30;;;7.07;;
249;SDS011;109;19.806;-70.704;2022-10-16T04:06:30;43.60;;;7.90;;
249;SDS011;109;19.806;-70.704;2022-10-16T04:09:09;30.20;;;7.43;;
249;SDS011;109;19.806;-70.704;2022-10-16T04:11:36;28.17;;;7.67;;
249;SDS011;109;19.806;-70.704;2022-10-16T04:14:16;28.37;;;8.00;;
249;SDS011;109;19.806;-70.704;2022-10-16T04:16:42;28.43;;;6.87;;
249;SDS011;109;19.806;-70.704;2022-10-16T04:19:21;35.40;;;8.30;;
249;SDS011;109;19.806;-70.704;2022-10-16T04:21:48;35.47;;;7.97;;
249;SDS011;109;19.806;-70.704;2022-10-16T04:24:34;36.17;;;7.97;;
249;SDS011;109;19.806;-70.704;2022-10-16T04:27:13;27.00;;;6.80;;
249;SDS011;109;19.806;-70.704;2022-10-16T04:29:54;29.20;;;7.00;;
249;SDS011;109;19.806;-70.704;2022-10-16T04:32:27;33.00;;;7.00;;
249;SDS011;109;19.806;-70.704;2022-10-16T04:35:08;29.00;;;7.50;;
249;SDS011;109;19.806;-70.704;2022-10-16T04:37:35;33.50;;;7.10;;
249;SDS011;109;19.806;-70.704;2022-10-16T04:40:15;36.10;;;7.07;;
249;SDS011;109;19.806;-70.704;2022-10-16T04:42:41;35.13;;;8.27;;
249;SDS011;109;19.806;-70.704;2022-10-16T04:45:22;23.07;;;7.07;;
249;SDS011;109;19.806;-70.704;2022-10-16T04:47:48;36.60;;;7.07;;
249;SDS011;109;19.806;-70.704;2022-10-16T04:50:29;29.27;;;8.00;;
249;SDS011;109;19.806;-70.704;2022-10-16T04:53:04;37.93;;;8.33;;
249;SDS011;109;19.806;-70.704;2022-10-16T04:55:45;31.17;;;6.83;;
249;SDS011;109;19.806;-70.704;2022-10-16T04:58:11;39.87;;;7.57;;
249;SDS011;109;19.806;-70.704;2022-10-16T05:00:51;20.87;;;7.27;;
249;SDS011;109;19.806;-70.704;2022-10-16T05:03:17;30.17;;;6.93;;
249;SDS011;109;19.806;-70.704;2022-10-16T05:05:58;28.70;;;6.27;;
249;SDS011;109;19.806;-70.704;2022-10-16T05:08:24;25.17;;;7.10;;
249;SDS011;109;19.806;-70.704;2022-10-16T05:11:04;26.87;;;7.40;;
249;SDS011;109;19.806;-70.704;2022-10-16T05:13:30;26.10;;;6.77;;
249;SDS011;109;19.806;-70.704;2022-10-16T05:16:10;31.27;;;7.10;;
249;SDS011;109;19.806;-70.704;2022-10-16T05:18:57;24.57;;;6.57;;
249;SDS011;109;19.806;-70.704;2022-10-16T05:21:31;28.93;;;6.33;;
249;SDS011;109;19.806;-70.704;2022-10-16T05:24:18;38.43;;;7.53;;
249;SDS011;109;19.806;-70.704;2022-10-16T05:26:58;28.93;;;7.53;;
249;SDS011;109;19.806;-70.704;2022-10-16T05:29:37;36.13;;;6.93;;
249;SDS011;109;19.806;-70.704;2022-10-16T05:32:04;26.37;;;6.63;;
249;SDS011;109;19.806;-70.704;2022-10-16T05:34:44;21.00;;;7.10;;
249;SDS011;109;19.806;-70.704;2022-10-16T05:37:11;35.47;;;7.33;;
249;SDS011;109;19.806;-70.704;2022-10-16T05:39:52;36.90;;;7.30;;
249;SDS011;109;19.806;-70.704;2022-10-16T05:42:19;30.13;;;6.97;;
249;SDS011;109;19.806;-70.704;2022-10-16T05:44:58;29.40;;;8.27;;
249;SDS011;109;19.806;-70.704;2022-10-16T05:47:25;26.63;;;7.40;;
249;SDS011;109;19.806;-70.704;2022-10-16T05:50:05;28.80;;;7.20;;
249;SDS011;109;19.806;-70.704;2022-10-16T05:52:31;29.20;;;7.37;;
249;SDS011;109;19.806;-70.704;2022-10-16T05:55:12;23.30;;;6.70;;
249;SDS011;109;19.806;-70.704;2022-10-16T05:57:38;35.53;;;8.27;;
249;SDS011;109;19.806;-70.704;2022-10-16T06:00:18;21.00;;;6.80;;
249;SDS011;109;19.806;-70.704;2022-10-16T06:02:44;26.80;;;7.17;;
249;SDS011;109;19.806;-70.704;2022-10-16T06:05:24;23.20;;;6.90;;
249;SDS011;109;19.806;-70.704;2022-10-16T06:07:51;29.93;;;6.70;;
249;SDS011;109;19.806;-70.704;2022-10-16T06:10:33;31.30;;;7.33;;
249;SDS011;109;19.806;-70.704;2022-10-16T06:13:06;23.40;;;8.50;;
249;SDS011;109;19.806;-70.704;2022-10-16T06:15:46;21.20;;;6.47;;
249;SDS011;109;19.806;-70.704;2022-10-16T06:18:12;34.40;;;7.70;;
249;SDS011;109;19.806;-70.704;2022-10-16T06:20:52;27.40;;;6.77;;
249;SDS011;109;19.806;-70.704;2022-10-16T06:23:18;25.40;;;7.20;;
249;SDS011;109;19.806;-70.704;2022-10-16T06:26:06;28.27;;;7.60;;
249;SDS011;109;19.806;-70.704;2022-10-16T06:28:47;28.97;;;8.13;;
249;SDS011;109;19.806;-70.704;2022-10-16T06:31:14;22.70;;;7.40;;
249;SDS011;109;19.806;-70.704;2022-10-16T06:33:54;26.63;;;7.20;;
249;SDS011;109;19.806;-70.704;2022-10-16T06:36:37;28.10;;;6.93;;
249;SDS011;109;19.806;-70.704;2022-10-16T06:39:17;26.83;;;6.90;;
249;SDS011;109;19.806;-70.704;2022-10-16T06:41:43;37.10;;;8.53;;
249;SDS011;109;19.806;-70.704;2022-10-16T06:44:30;31.27;;;6.93;;
249;SDS011;109;19.806;-70.704;2022-10-16T06:47:04;28.87;;;6.57;;
249;SDS011;109;19.806;-70.704;2022-10-16T06:49:43;29.47;;;6.67;;
249;SDS011;109;19.806;-70.704;2022-10-16T06:52:10;21.23;;;6.47;;
249;SDS011;109;19.806;-70.704;2022-10-16T06:54:50;26.73;;;6.60;;
249;SDS011;109;19.806;-70.704;2022-10-16T06:57:16;21.53;;;6.40;;
249;SDS011;109;19.806;-70.704;2022-10-16T06:59:58;31.03;;;7.23;;
249;SDS011;109;19.806;-70.704;2022-10-16T07:02:24;21.67;;;6.93;;
249;SDS011;109;19.806;-70.704;2022-10-16T07:05:11;30.03;;;7.77;;
249;SDS011;109;19.806;-70.704;2022-10-16T07:07:44;27.00;;;7.50;;
249;SDS011;109;19.806;-70.704;2022-10-16T07:10:24;26.03;;;6.50;;
249;SDS011;109;19.806;-70.704;2022-10-16T07:12:50;32.30;;;6.37;;
249;SDS011;109;19.806;-70.704;2022-10-16T07:15:30;20.07;;;6.07;;
249;SDS011;109;19.806;-70.704;2022-10-16T07:17:56;28.23;;;6.97;;
249;SDS011;109;19.806;-70.704;2022-10-16T07:20:36;30.93;;;7.20;;
249;SDS011;109;19.806;-70.704;2022-10-16T07:23:03;27.63;;;6.53;;
249;SDS011;109;19.806;-70.704;2022-10-16T07:25:55;21.43;;;7.20;;
249;SDS011;109;19.806;-70.704;2022-10-16T07:28:35;27.37;;;6.90;;
249;SDS011;109;19.806;-70.704;2022-10-16T07:31:02;17.10;;;6.00;;
249;SDS011;109;19.806;-70.704;2022-10-16T07:33:43;25.63;;;6.17;;
249;SDS011;109;19.806;-70.704;2022-10-16T07:36:18;24.27;;;6.57;;
249;SDS011;109;19.806;-70.704;2022-10-16T07:39:00;23.47;;;7.47;;
249;SDS011;109;19.806;-70.704;2022-10-16T07:41:26;21.13;;;5.93;;
249;SDS011;109;19.806;-70.704;2022-10-16T07:44:09;24.20;;;6.50;;
249;SDS011;109;19.806;-70.704;2022-10-16T07:46:35;24.50;;;7.40;;
249;SDS011;109;19.806;-70.704;2022-10-16T07:49:15;20.40;;;6.23;;
249;SDS011;109;19.806;-70.704;2022-10-16T07:51:41;27.23;;;6.53;;
249;SDS011;109;19.806;-70.704;2022-10-16T07:54:21;21.40;;;7.23;;
249;SDS011;109;19.806;-70.704;2022-10-16T07:56:48;24.73;;;6.57;;
249;SDS011;109;19.806;-70.704;2022-10-16T07:59:29;22.87;;;7.40;;
249;SDS011;109;19.806;-70.704;2022-10-16T08:01:55;31.20;;;6.83;;
249;SDS011;109;19.806;-70.704;2022-10-16T08:04:35;29.37;;;7.77;;
249;SDS011;109;19.806;-70.704;2022-10-16T08:07:08;22.20;;;6.97;;
249;SDS011;109;19.806;-70.704;2022-10-16T08:09:49;25.33;;;6.87;;
249;SDS011;109;19.806;-70.704;2022-10-16T08:12:17;29.60;;;8.60;;
249;SDS011;109;19.806;-70.704;2022-10-16T08:14:57;22.40;;;6.60;;
249;SDS011;109;19.806;-70.704;2022-10-16T08:17:23;27.07;;;7.13;;
249;SDS011;109;19.806;-70.704;2022-10-16T08:20:03;25.70;;;6.40;;
249;SDS011;109;19.806;-70.704;2022-10-16T08:22:29;26.27;;;6.60;;
249;SDS011;109;19.806;-70.704;2022-10-16T08:25:16;17.33;;;6.60;;
249;SDS011;109;19.806;-70.704;2022-10-16T08:27:56;29.27;;;7.17;;
249;SDS011;109;19.806;-70.704;2022-10-16T08:30:37;31.43;;;7.80;;
249;SDS011;109;19.806;-70.704;2022-10-16T08:33:17;20.40;;;6.43;;
249;SDS011;109;19.806;-70.704;2022-10-16T08:35:49;21.93;;;7.40;;
249;SDS011;109;19.806;-70.704;2022-10-16T08:38:38;24.43;;;6.90;;
249;SDS011;109;19.806;-70.704;2022-10-16T08:44:10;18.23;;;6.67;;
249;SDS011;109;19.806;-70.704;2022-10-16T08:47:22;25.57;;;7.30;;
249;SDS011;109;19.806;-70.704;2022-10-16T08:50:09;17.33;;;6.13;;
249;SDS011;109;19.806;-70.704;2022-10-16T08:52:44;28.27;;;7.53;;
249;SDS011;109;19.806;-70.704;2022-10-16T08:55:31;29.40;;;7.10;;
249;SDS011;109;19.806;-70.704;2022-10-16T08:58:15;23.37;;;7.13;;
249;SDS011;109;19.806;-70.704;2022-10-16T09:00:52;20.87;;;7.70;;
249;SDS011;109;19.806;-70.704;2022-10-16T09:03:54;22.13;;;7.13;;
249;SDS011;109;19.806;-70.704;2022-10-16T09:06:50;26.43;;;6.70;;
249;SDS011;109;19.806;-70.704;2022-10-16T09:09:50;22.80;;;6.80;;
249;SDS011;109;19.806;-70.704;2022-10-16T09:15:32;24.53;;;6.97;;
249;SDS011;109;19.806;-70.704;2022-10-16T09:21:24;27.97;;;7.47;;
249;SDS011;109;19.806;-70.704;2022-10-16T09:24:16;22.60;;;7.53;;
249;SDS011;109;19.806;-70.704;2022-10-16T09:26:59;27.43;;;6.70;;
249;SDS011;109;19.806;-70.704;2022-10-16T09:29:39;26.30;;;8.17;;
249;SDS011;109;19.806;-70.704;2022-10-16T09:32:13;20.97;;;6.83;;
249;SDS011;109;19.806;-70.704;2022-10-16T09:34:57;23.90;;;7.10;;
249;SDS011;109;19.806;-70.704;2022-10-16T09:37:24;24.23;;;7.03;;
249;SDS011;109;19.806;-70.704;2022-10-16T09:40:31;25.57;;;7.40;;
249;SDS011;109;19.806;-70.704;2022-10-16T09:46:06;28.50;;;8.13;;
249;SDS011;109;19.806;-70.704;2022-10-16T09:48:49;29.07;;;7.80;;
249;SDS011;109;19.806;-70.704;2022-10-16T09:51:25;26.57;;;7.73;;
249;SDS011;109;19.806;-70.704;2022-10-16T09:56:49;24.23;;;7.27;;
249;SDS011;109;19.806;-70.704;2022-10-16T09:59:30;27.80;;;7.20;;
249;SDS011;109;19.806;-70.704;2022-10-16T10:02:00;19.50;;;6.57;;
249;SDS011;109;19.806;-70.704;2022-10-16T10:04:44;18.97;;;6.83;;
249;SDS011;109;19.806;-70.704;2022-10-16T10:07:25;20.73;;;8.00;;
249;SDS011;109;19.806;-70.704;2022-10-16T10:10:23;23.80;;;8.70;;
249;SDS011;109;19.806;-70.704;2022-10-16T10:13:27;26.60;;;8.73;;
249;SDS011;109;19.806;-70.704;2022-10-16T10:16:00;22.47;;;9.30;;
249;SDS011;109;19.806;-70.704;2022-10-16T10:18:41;25.13;;;8.20;;
249;SDS011;109;19.806;-70.704;2022-10-16T10:24:29;27.37;;;8.77;;
249;SDS011;109;19.806;-70.704;2022-10-16T10:27:13;25.23;;;8.80;;
249;SDS011;109;19.806;-70.704;2022-10-16T10:35:25;26.77;;;9.87;;
249;SDS011;109;19.806;-70.704;2022-10-16T10:46:41;28.73;;;10.97;;
249;SDS011;109;19.806;-70.704;2022-10-16T10:57:40;34.57;;;9.93;;
249;SDS011;109;19.806;-70.704;2022-10-16T11:00:28;35.73;;;10.43;;
249;SDS011;109;19.806;-70.704;2022-10-16T11:05:52;29.33;;;11.33;;
249;SDS011;109;19.806;-70.704;2022-10-16T11:11:05;24.83;;;12.10;;
249;SDS011;109;19.806;-70.704;2022-10-16T11:16:39;38.70;;;11.40;;
249;SDS011;109;19.806;-70.704;2022-10-16T11:22:27;30.13;;;12.20;;
249;SDS011;109;19.806;-70.704;2022-10-16T11:24:52;32.10;;;13.33;;
249;SDS011;109;19.806;-70.704;2022-10-16T11:27:36;27.77;;;13.60;;
249;SDS011;109;19.806;-70.704;2022-10-16T11:30:05;31.80;;;14.17;;
249;SDS011;109;19.806;-70.704;2022-10-16T11:32:45;34.53;;;14.50;;
249;SDS011;109;19.806;-70.704;2022-10-16T11:35:37;38.23;;;16.40;;
249;SDS011;109;19.806;-70.704;2022-10-16T11:38:24;34.50;;;16.03;;
249;SDS011;109;19.806;-70.704;2022-10-16T11:40:58;29.43;;;15.90;;
249;SDS011;109;19.806;-70.704;2022-10-16T11:43:40;31.83;;;15.10;;
249;SDS011;109;19.806;-70.704;2022-10-16T11:46:13;38.93;;;14.10;;
249;SDS011;109;19.806;-70.704;2022-10-16T11:48:47;22.73;;;12.47;;
249;SDS011;109;19.806;-70.704;2022-10-16T11:54:14;31.40;;;12.97;;
249;SDS011;109;19.806;-70.704;2022-10-16T11:56:48;35.03;;;13.50;;
249;SDS011;109;19.806;-70.704;2022-10-16T11:59:30;33.13;;;14.27;;
249;SDS011;109;19.806;-70.704;2022-10-16T12:08:11;27.07;;;10.93;;
249;SDS011;109;19.806;-70.704;2022-10-16T12:10:41;29.07;;;11.23;;
249;SDS011;109;19.806;-70.704;2022-10-16T12:16:49;31.90;;;10.67;;
249;SDS011;109;19.806;-70.704;2022-10-16T12:18:43;26.83;;;11.83;;
249;SDS011;109;19.806;-70.704;2022-10-16T12:21:11;28.80;;;10.77;;
249;SDS011;109;19.806;-70.704;2022-10-16T12:26:38;28.17;;;11.10;;
249;SDS011;109;19.806;-70.704;2022-10-16T12:29:13;27.07;;;10.60;;
249;SDS011;109;19.806;-70.704;2022-10-16T12:31:58;24.37;;;9.40;;
249;SDS011;109;19.806;-70.704;2022-10-16T12:37:20;25.07;;;10.03;;
249;SDS011;109;19.806;-70.704;2022-10-16T12:39:49;31.00;;;10.70;;
249;SDS011;109;19.806;-70.704;2022-10-16T12:42:23;31.03;;;11.83;;
249;SDS011;109;19.806;-70.704;2022-10-16T12:44:53;42.07;;;12.43;;
249;SDS011;109;19.806;-70.704;2022-10-16T12:47:21;26.87;;;10.60;;
249;SDS011;109;19.806;-70.704;2022-10-16T12:49:50;37.23;;;12.90;;
249;SDS011;109;19.806;-70.704;2022-10-16T12:55:00;33.30;;;12.20;;
249;SDS011;109;19.806;-70.704;2022-10-16T12:57:30;50.63;;;12.60;;
249;SDS011;109;19.806;-70.704;2022-10-16T13:00:25;59.57;;;14.60;;
249;SDS011;109;19.806;-70.704;2022-10-16T13:11:16;28.83;;;9.00;;
249;SDS011;109;19.806;-70.704;2022-10-16T13:22:08;31.13;;;8.83;;
249;SDS011;109;19.806;-70.704;2022-10-16T13:25:02;39.57;;;9.03;;
249;SDS011;109;19.806;-70.704;2022-10-16T13:28:08;33.57;;;8.10;;
249;SDS011;109;19.806;-70.704;2022-10-16T13:30:40;32.33;;;10.90;;
249;SDS011;109;19.806;-70.704;2022-10-16T13:35:49;37.63;;;9.97;;
249;SDS011;109;19.806;-70.704;2022-10-16T13:38:18;28.30;;;9.10;;
249;SDS011;109;19.806;-70.704;2022-10-16T13:40:56;43.20;;;10.67;;
249;SDS011;109;19.806;-70.704;2022-10-16T13:43:27;31.53;;;8.93;;
249;SDS011;109;19.806;-70.704;2022-10-16T13:48:41;62.10;;;11.27;;
249;SDS011;109;19.806;-70.704;2022-10-16T13:51:15;35.93;;;13.43;;
249;SDS011;109;19.806;-70.704;2022-10-16T13:53:44;39.23;;;10.47;;
249;SDS011;109;19.806;-70.704;2022-10-16T13:56:15;38.87;;;9.90;;
249;SDS011;109;19.806;-70.704;2022-10-16T13:58:44;33.90;;;9.87;;
249;SDS011;109;19.806;-70.704;2022-10-16T14:03:49;33.07;;;8.93;;
249;SDS011;109;19.806;-70.704;2022-10-16T14:06:17;33.80;;;9.87;;
249;SDS011;109;19.806;-70.704;2022-10-16T14:08:57;28.43;;;9.17;;
249;SDS011;109;19.806;-70.704;2022-10-16T14:11:33;35.53;;;9.70;;
249;SDS011;109;19.806;-70.704;2022-10-16T14:14:03;31.67;;;9.50;;
249;SDS011;109;19.806;-70.704;2022-10-16T14:16:30;39.57;;;10.53;;
249;SDS011;109;19.806;-70.704;2022-10-16T14:18:59;44.70;;;10.90;;
249;SDS011;109;19.806;-70.704;2022-10-16T14:21:32;32.33;;;8.97;;
249;SDS011;109;19.806;-70.704;2022-10-16T14:24:09;28.27;;;9.50;;
249;SDS011;109;19.806;-70.704;2022-10-16T14:26:41;46.17;;;9.70;;
249;SDS011;109;19.806;-70.704;2022-10-16T14:29:17;32.53;;;9.43;;
249;SDS011;109;19.806;-70.704;2022-10-16T14:32:01;29.47;;;10.30;;
249;SDS011;109;19.806;-70.704;2022-10-16T14:34:35;37.40;;;9.90;;
249;SDS011;109;19.806;-70.704;2022-10-16T14:39:40;34.93;;;9.10;;
249;SDS011;109;19.806;-70.704;2022-10-16T14:42:20;37.17;;;10.50;;
249;SDS011;109;19.806;-70.704;2022-10-16T14:44:50;51.93;;;10.80;;
249;SDS011;109;19.806;-70.704;2022-10-16T14:47:20;54.87;;;11.30;;
249;SDS011;109;19.806;-70.704;2022-10-16T14:49:52;45.50;;;10.73;;
249;SDS011;109;19.806;-70.704;2022-10-16T14:52:24;81.67;;;12.50;;
249;SDS011;109;19.806;-70.704;2022-10-16T14:54:51;41.17;;;10.30;;
249;SDS011;109;19.806;-70.704;2022-10-16T14:57:23;47.77;;;12.13;;
249;SDS011;109;19.806;-70.704;2022-10-16T14:59:53;53.37;;;12.23;;
249;SDS011;109;19.806;-70.704;2022-10-16T15:02:25;55.40;;;13.23;;
249;SDS011;109;19.806;-70.704;2022-10-16T15:04:55;44.13;;;11.77;;
249;SDS011;109;19.806;-70.704;2022-10-16T15:07:22;43.40;;;10.87;;
249;SDS011;109;19.806;-70.704;2022-10-16T15:09:50;45.10;;;11.40;;
249;SDS011;109;19.806;-70.704;2022-10-16T15:12:17;36.93;;;10.63;;
249;SDS011;109;19.806;-70.704;2022-10-16T15:14:43;48.43;;;10.37;;
249;SDS011;109;19.806;-70.704;2022-10-16T15:17:10;44.17;;;10.00;;
249;SDS011;109;19.806;-70.704;2022-10-16T15:19:37;44.27;;;10.67;;
249;SDS011;109;19.806;-70.704;2022-10-16T15:22:03;38.17;;;9.63;;
249;SDS011;109;19.806;-70.704;2022-10-16T15:24:30;44.70;;;10.07;;
249;SDS011;109;19.806;-70.704;2022-10-16T15:26:56;36.83;;;9.33;;
249;SDS011;109;19.806;-70.704;2022-10-16T15:29:23;45.20;;;10.33;;
249;SDS011;109;19.806;-70.704;2022-10-16T15:31:49;31.93;;;11.13;;
249;SDS011;109;19.806;-70.704;2022-10-16T15:34:16;28.77;;;9.40;;
249;SDS011;109;19.806;-70.704;2022-10-16T15:36:44;35.90;;;10.63;;
249;SDS011;109;19.806;-70.704;2022-10-16T15:39:15;34.33;;;10.80;;
249;SDS011;109;19.806;-70.704;2022-10-16T15:41:45;40.97;;;9.37;;
249;SDS011;109;19.806;-70.704;2022-10-16T15:44:17;24.57;;;8.70;;
249;SDS011;109;19.806;-70.704;2022-10-16T15:46:43;33.13;;;9.20;;
249;SDS011;109;19.806;-70.704;2022-10-16T15:49:10;35.30;;;10.07;;
249;SDS011;109;19.806;-70.704;2022-10-16T15:51:37;38.63;;;9.63;;
249;SDS011;109;19.806;-70.704;2022-10-16T15:54:05;33.90;;;9.77;;
249;SDS011;109;19.806;-70.704;2022-10-16T15:56:32;27.23;;;9.40;;
249;SDS011;109;19.806;-70.704;2022-10-16T15:58:59;26.33;;;9.40;;
249;SDS011;109;19.806;-70.704;2022-10-16T16:01:27;31.43;;;9.60;;
249;SDS011;109;19.806;-70.704;2022-10-16T16:03:55;28.90;;;9.70;;
249;SDS011;109;19.806;-70.704;2022-10-16T16:06:22;43.87;;;11.90;;
249;SDS011;109;19.806;-70.704;2022-10-16T16:08:50;43.40;;;10.70;;
249;SDS011;109;19.806;-70.704;2022-10-16T16:11:17;44.13;;;11.50;;
249;SDS011;109;19.806;-70.704;2022-10-16T16:13:44;28.43;;;10.13;;
249;SDS011;109;19.806;-70.704;2022-10-16T16:16:12;40.70;;;11.33;;
249;SDS011;109;19.806;-70.704;2022-10-16T16:18:41;41.17;;;11.30;;
249;SDS011;109;19.806;-70.704;2022-10-16T16:21:09;24.00;;;10.57;;
249;SDS011;109;19.806;-70.704;2022-10-16T16:23:37;43.33;;;11.23;;
249;SDS011;109;19.806;-70.704;2022-10-16T16:26:04;64.93;;;14.63;;
249;SDS011;109;19.806;-70.704;2022-10-16T16:28:52;46.50;;;11.83;;
249;SDS011;109;19.806;-70.704;2022-10-16T16:31:20;39.03;;;9.70;;
249;SDS011;109;19.806;-70.704;2022-10-16T16:33:47;38.70;;;11.50;;
249;SDS011;109;19.806;-70.704;2022-10-16T16:36:14;36.63;;;11.37;;
249;SDS011;109;19.806;-70.704;2022-10-16T16:38:40;57.33;;;12.53;;
249;SDS011;109;19.806;-70.704;2022-10-16T16:41:20;33.20;;;10.40;;
249;SDS011;109;19.806;-70.704;2022-10-16T16:43:48;35.13;;;10.23;;
249;SDS011;109;19.806;-70.704;2022-10-16T16:46:16;55.07;;;12.07;;
249;SDS011;109;19.806;-70.704;2022-10-16T16:48:44;46.77;;;12.37;;
249;SDS011;109;19.806;-70.704;2022-10-16T16:51:12;49.03;;;13.00;;
249;SDS011;109;19.806;-70.704;2022-10-16T16:53:46;41.40;;;10.50;;
249;SDS011;109;19.806;-70.704;2022-10-16T16:56:14;40.43;;;11.60;;
249;SDS011;109;19.806;-70.704;2022-10-16T16:58:41;57.00;;;11.87;;
249;SDS011;109;19.806;-70.704;2022-10-16T17:01:11;71.30;;;14.50;;
249;SDS011;109;19.806;-70.704;2022-10-16T17:03:37;36.30;;;12.17;;
249;SDS011;109;19.806;-70.704;2022-10-16T17:06:07;40.77;;;12.77;;
249;SDS011;109;19.806;-70.704;2022-10-16T17:08:35;41.37;;;13.40;;
249;SDS011;109;19.806;-70.704;2022-10-16T17:11:02;43.53;;;11.80;;
249;SDS011;109;19.806;-70.704;2022-10-16T17:13:31;91.00;;;13.90;;
249;SDS011;109;19.806;-70.704;2022-10-16T17:16:03;62.83;;;15.83;;
249;SDS011;109;19.806;-70.704;2022-10-16T17:18:31;46.90;;;11.10;;
249;SDS011;109;19.806;-70.704;2022-10-16T17:20:59;53.80;;;12.43;;
249;SDS011;109;19.806;-70.704;2022-10-16T17:23:25;39.90;;;11.23;;
249;SDS011;109;19.806;-70.704;2022-10-16T17:25:53;47.80;;;11.90;;
249;SDS011;109;19.806;-70.704;2022-10-16T17:28:19;45.73;;;10.47;;
249;SDS011;109;19.806;-70.704;2022-10-16T17:30:46;25.93;;;7.73;;
249;SDS011;109;19.806;-70.704;2022-10-16T17:33:13;42.47;;;9.90;;
249;SDS011;109;19.806;-70.704;2022-10-16T17:35:43;34.50;;;8.33;;
249;SDS011;109;19.806;-70.704;2022-10-16T17:38:11;37.57;;;7.80;;
249;SDS011;109;19.806;-70.704;2022-10-16T17:40:39;45.10;;;9.40;;
249;SDS011;109;19.806;-70.704;2022-10-16T17:43:07;56.23;;;8.53;;
249;SDS011;109;19.806;-70.704;2022-10-16T17:45:36;26.90;;;6.53;;
249;SDS011;109;19.806;-70.704;2022-10-16T17:48:04;22.73;;;5.60;;
249;SDS011;109;19.806;-70.704;2022-10-16T17:50:31;37.43;;;6.33;;